Latest Weather Observations for Colpoys Point

IDW60901

Issued at 7:31 am WST Friday 15 November 2019 (issued every 10 minutes, with the page automatically refreshed every 10 minutes)

About weather observations | Map of Perth area stations | Latest observations for Perth area | Other Formats
Station Details ID: 009255 Name: COLPOYS POINT Lat: -32.23 Lon: 115.70 Height: 3.0 m
Data from the previous 72 hours. | See also: Recent months for locations in Western Australia
Date/Time
WST
Temp
°C
App
Temp
°C
Dew
Point
°C
Rel
Hum
%
Delta-T
°C
Wind Press
QNH
hPa
Press
MSL
hPa
Rain since
9am
mm
Dir  Spd
km/h
Gust
km/h
Spd
kts
Gust
kts
15/07:30am - - - - - SE 19 20 10 11 - - -
15/07:00am - - - - - SE 19 22 10 12 - - -
15/06:30am - - - - - SE 19 22 10 12 - - -
15/06:00am - - - - - SE 19 24 10 13 - - -
15/05:30am - - - - - SSE 15 19 8 10 - - -
15/05:00am - - - - - ESE 17 24 9 13 - - -
15/04:30am - - - - - ESE 20 28 11 15 - - -
15/04:00am - - - - - ESE 24 28 13 15 - - -
15/03:30am - - - - - ESE 24 28 13 15 - - -
15/03:00am - - - - - SE 17 20 9 11 - - -
15/02:30am - - - - - ESE 20 26 11 14 - - -
15/02:00am - - - - - E 19 28 10 15 - - -
15/01:30am - - - - - ESE 26 32 14 17 - - -
15/01:00am - - - - - ESE 24 32 13 17 - - -
15/12:30am - - - - - SE 26 35 14 19 - - -
15/12:00am - - - - - SE 26 32 14 17 - - -
 
Date/Time
WST
Temp
°C
App
Temp
°C
Dew
Point
°C
Rel
Hum
%
Delta-T
°C
Wind Press
QNH
hPa
Press
MSL
hPa
Rain since
9am
mm
Dir  Spd
km/h
Gust
km/h
Spd
kts
Gust
kts
14/11:30pm - - - - - SSE 15 17 8 9 - - -
14/11:00pm - - - - - S 17 20 9 11 - - -
14/10:30pm - - - - - S 19 22 10 12 - - -
14/10:00pm - - - - - S 24 30 13 16 - - -
14/09:30pm - - - - - SSW 30 33 16 18 - - -
14/09:00pm - - - - - SSW 30 32 16 17 - - -
14/08:30pm - - - - - SSW 30 32 16 17 - - -
14/08:00pm - - - - - SSW 30 33 16 18 - - -
14/07:30pm - - - - - SSW 33 39 18 21 - - -
14/07:00pm - - - - - SSW 37 43 20 23 - - -
14/06:30pm - - - - - SSW 33 37 18 20 - - -
14/06:00pm - - - - - SSW 37 41 20 22 - - -
14/05:30pm - - - - - SSW 35 39 19 21 - - -
14/05:00pm - - - - - SSW 37 43 20 23 - - -
14/04:30pm - - - - - SSW 37 41 20 22 - - -
14/04:00pm - - - - - SSW 35 41 19 22 - - -
14/03:30pm - - - - - SSW 35 41 19 22 - - -
14/03:00pm - - - - - SSW 33 39 18 21 - - -
14/02:30pm - - - - - SSW 32 33 17 18 - - -
14/02:00pm - - - - - SSW 33 39 18 21 - - -
14/01:30pm - - - - - SSW 35 39 19 21 - - -
14/01:00pm - - - - - SSW 30 35 16 19 - - -
14/12:30pm - - - - - SSW 28 32 15 17 - - -
14/12:00pm - - - - - SSW 24 30 13 16 - - -
14/11:30am - - - - - SSW 17 19 9 10 - - -
14/11:00am - - - - - SSW 15 19 8 10 - - -
14/10:30am - - - - - S 11 13 6 7 - - -
14/10:00am - - - - - SSE 6 11 3 6 - - -
14/09:30am - - - - - SSE 7 9 4 5 - - -
14/09:00am - - - - - SSE 7 7 4 4 - - -
14/08:30am - - - - - SSE 7 9 4 5 - - -
14/08:00am - - - - - SSE 7 7 4 4 - - -
14/07:30am - - - - - S 7 9 4 5 - - -
14/07:00am - - - - - S 7 9 4 5 - - -
14/06:30am - - - - - S 9 13 5 7 - - -
14/06:00am - - - - - SSW 11 13 6 7 - - -
14/05:30am - - - - - SSW 11 13 6 7 - - -
14/05:00am - - - - - S 11 13 6 7 - - -
14/04:30am - - - - - S 11 11 6 6 - - -
14/04:00am - - - - - S 11 11 6 6 - - -
14/03:30am - - - - - S 11 13 6 7 - - -
14/03:00am - - - - - S 13 15 7 8 - - -
14/02:30am - - - - - SSW 15 17 8 9 - - -
14/02:00am - - - - - S 13 13 7 7 - - -
14/01:30am - - - - - S 13 13 7 7 - - -
14/01:00am - - - - - S 15 17 8 9 - - -
14/12:30am - - - - - S 17 17 9 9 - - -
14/12:00am - - - - - S 13 15 7 8 - - -
 
Date/Time
WST
Temp
°C
App
Temp
°C
Dew
Point
°C
Rel
Hum
%
Delta-T
°C
Wind Press
QNH
hPa
Press
MSL
hPa
Rain since
9am
mm
Dir  Spd
km/h
Gust
km/h
Spd
kts
Gust
kts
13/11:30pm - - - - - S 15 17 8 9 - - -
13/11:00pm - - - - - S 17 19 9 10 - - -
13/10:30pm - - - - - S 17 19 9 10 - - -
13/10:00pm - - - - - S 20 26 11 14 - - -
13/09:30pm - - - - - S 24 28 13 15 - - -
13/09:00pm - - - - - S 26 30 14 16 - - -
13/08:30pm - - - - - S 24 28 13 15 - - -
13/08:00pm - - - - - SSW 28 32 15 17 - - -
13/07:30pm - - - - - SSW 26 30 14 16 - - -
13/07:00pm - - - - - SSW 28 32 15 17 - - -
13/06:30pm - - - - - SSW 32 35 17 19 - - -
13/06:00pm - - - - - SSW 32 35 17 19 - - -
13/05:30pm - - - - - SSW 32 35 17 19 - - -
13/05:00pm - - - - - SSW 33 37 18 20 - - -
13/04:30pm - - - - - SSW 32 37 17 20 - - -
13/04:00pm - - - - - SSW 30 35 16 19 - - -
13/03:30pm - - - - - SSW 30 35 16 19 - - -
13/03:00pm - - - - - SSW 28 33 15 18 - - -
13/02:30pm - - - - - SW 22 28 12 15 - - -
13/02:00pm - - - - - SW 20 24 11 13 - - -
13/01:30pm - - - - - SW 19 22 10 12 - - -
13/01:00pm - - - - - SW 19 22 10 12 - - -
13/12:30pm - - - - - SW 17 19 9 10 - - -
13/12:00pm - - - - - SSW 17 19 9 10 - - -
13/11:30am - - - - - E 13 17 7 9 - - -
13/11:00am - - - - - E 7 9 4 5 - - -
13/10:30am - - - - - ENE 7 9 4 5 - - -
13/10:00am - - - - - ENE 11 13 6 7 - - -
13/09:30am - - - - - E 13 15 7 8 - - -
13/09:00am - - - - - ENE 20 26 11 14 - - -
13/08:30am - - - - - ENE 20 24 11 13 - - -
13/08:00am - - - - - ENE 17 20 9 11 - - -
13/07:30am - - - - - E 17 19 9 10 - - -
13/07:00am - - - - - E 20 24 11 13 - - -
13/06:30am - - - - - ESE 19 24 10 13 - - -
13/06:00am - - - - - ESE 22 28 12 15 - - -
13/05:30am - - - - - E 22 26 12 14 - - -
13/05:00am - - - - - E 24 30 13 16 - - -
13/04:30am - - - - - E 26 30 14 16 - - -
13/04:00am - - - - - E 26 30 14 16 - - -
13/03:30am - - - - - E 28 32 15 17 - - -
13/03:00am - - - - - E 28 32 15 17 - - -
13/02:30am - - - - - E 26 30 14 16 - - -
13/02:00am - - - - - E 24 30 13 16 - - -
13/01:30am - - - - - E 26 32 14 17 - - -
13/01:00am - - - - - E 28 35 15 19 - - -
13/12:30am - - - - - E 30 37 16 20 - - -
13/12:00am - - - - - ESE 22 30 12 16 - - -
 
Date/Time
WST
Temp
°C
App
Temp
°C
Dew
Point
°C
Rel
Hum
%
Delta-T
°C
Wind Press
QNH
hPa
Press
MSL
hPa
Rain since
9am
mm
Dir  Spd
km/h
Gust
km/h
Spd
kts
Gust
kts
12/11:30pm - - - - - ESE 17 22 9 12 - - -
12/11:00pm - - - - - ESE 17 20 9 11 - - -
12/10:30pm - - - - - ESE 22 26 12 14 - - -
12/10:00pm - - - - - ESE 19 24 10 13 - - -
12/09:30pm - - - - - SE 15 17 8 9 - - -
12/09:00pm - - - - - SE 15 17 8 9 - - -
12/08:30pm - - - - - SE 19 19 10 10 - - -
12/08:00pm - - - - - SE 17 19 9 10 - - -
12/07:30pm - - - - - SSE 17 19 9 10 - - -
12/07:00pm - - - - - ESE 19 22 10 12 - - -
12/06:30pm - - - - - ESE 20 22 11 12 - - -
12/06:00pm - - - - - ESE 22 28 12 15 - - -
12/05:30pm - - - - - ESE 22 26 12 14 - - -
12/05:00pm - - - - - SE 20 22 11 12 - - -
12/04:30pm - - - - - SE 20 26 11 14 - - -
12/04:00pm - - - - - ESE 17 22 9 12 - - -
12/03:30pm - - - - - SE 17 24 9 13 - - -
12/03:00pm - - - - - ESE 19 22 10 12 - - -
12/02:30pm - - - - - ESE 20 24 11 13 - - -
12/02:00pm - - - - - ESE 20 26 11 14 - - -
12/01:30pm - - - - - ESE 24 30 13 16 - - -
12/01:00pm - - - - - ESE 22 26 12 14 - - -
12/12:30pm - - - - - ESE 26 30 14 16 - - -
12/12:00pm - - - - - ESE 24 30 13 16 - - -
12/11:30am - - - - - ESE 26 32 14 17 - - -
12/11:00am - - - - - ESE 26 32 14 17 - - -
12/10:30am - - - - - ESE 28 32 15 17 - - -
12/10:00am - - - - - ESE 28 33 15 18 - - -
12/09:30am - - - - - ESE 32 35 17 19 - - -
12/09:00am - - - - - E 30 37 16 20 - - -
12/08:30am - - - - - E 33 39 18 21 - - -
12/08:00am - - - - - E 32 37 17 20 - - -

Latest Capital City Observations: Canberra | Sydney | Melbourne | Brisbane | Adelaide | Perth | Hobart | Darwin

Other formats

Comma delimited format used in spreadsheet applications
http://www.bom.gov.au/fwo/IDW60901/IDW60901.99255.axf

JavaScript Object Notation format (JSON) in row-major order
http://www.bom.gov.au/fwo/IDW60901/IDW60901.99255.json

Data quality

Most of these data are generated automatically and are frequently updated. Quality checks on data are not normally performed. It is possible for incorrect values to appear. Refer to information at About Latest Weather Observations and please check the disclaimer before using these data.